Time;durP1;ratioP1;P1;durP2;ratioP2;P2;SDS_P1;SDS_P2;PMS_P1;PMS_P2;Temp;Humidity;BMP_temperature;BMP_pressure;BME280_temperature;BME280_humidity;BME280_pressure;Samples;Min_cycle;Max_cycle;Signal;HPM_P1;HPM_P2
2022/12/07 00:00:26;;;;;;;;;;;5.40;99.90;;;;;;5045766;28;20051;-63
2022/12/07 00:02:51;;;;;;;;;;;5.40;99.90;;;;;;5049842;28;19925;-63
2022/12/07 00:05:17;;;;;;;;;;;5.40;99.90;;;;;;5048321;28;19913;-63
2022/12/07 00:07:42;;;;;;;;;;;5.40;99.90;;;;;;5051170;28;20282;-62
2022/12/07 00:10:08;;;;;;;;;;;5.40;99.90;;;;;;5049535;28;19927;-61
2022/12/07 00:12:33;;;;;;;;;;;5.40;99.90;;;;;;5049075;28;19920;-62
2022/12/07 00:14:59;;;;;;;;;;;5.40;99.90;;;;;;5049550;28;19919;-63
2022/12/07 00:17:24;;;;;;;;;;;5.50;99.90;;;;;;5048147;28;19959;-62
2022/12/07 00:19:50;;;;;;;;;;;5.50;99.90;;;;;;5049398;28;19913;-63
2022/12/07 00:22:15;;;;;;;;;;;5.50;99.90;;;;;;5049865;28;19919;-63
2022/12/07 00:24:40;;;;;;;;;;;5.50;99.90;;;;;;5050628;28;19923;-62
2022/12/07 00:27:06;;;;;;;;;;;5.50;99.90;;;;;;5047637;28;19913;-63
2022/12/07 00:29:31;;;;;;;;;;;5.50;99.90;;;;;;5049820;28;20417;-63
2022/12/07 00:31:57;;;;;;;;;;;5.50;99.90;;;;;;5049749;28;20395;-63
2022/12/07 00:34:22;;;;;;;;;;;5.50;99.90;;;;;;5050184;28;19923;-62
2022/12/07 00:36:48;;;;;;;;;;;5.50;99.90;;;;;;5047719;28;20066;-62
2022/12/07 00:39:14;;;;;;;;;;;5.50;99.90;;;;;;5048384;28;20268;-62
2022/12/07 00:41:40;;;;;;;;;;;5.50;99.90;;;;;;5043141;28;19923;-61
2022/12/07 00:44:05;;;;;;;;;;;5.50;99.90;;;;;;5048453;28;19920;-62
2022/12/07 00:46:31;;;;;;;;;;;5.50;99.90;;;;;;5048695;28;19920;-63
2022/12/07 00:48:56;;;;;;;;;;;5.50;99.90;;;;;;5048389;28;19946;-62
2022/12/07 00:51:23;;;;;;;;;;;5.50;99.90;;;;;;5043058;28;19971;-63
2022/12/07 00:53:49;;;;;;;;;;;5.50;99.90;;;;;;5048137;28;19927;-61
2022/12/07 00:56:19;;;;;;;;;;;5.50;99.90;;;;;;5046593;28;19921;-63
2022/12/07 00:58:49;;;;;;;;;;;5.60;99.90;;;;;;5046171;28;19912;-63
2022/12/07 01:01:14;;;;;;;;;;;5.60;99.90;;;;;;5051117;28;19913;-63
2022/12/07 01:03:39;;;;;;;;;;;5.50;99.90;;;;;;5052114;28;20374;-62
2022/12/07 01:06:05;;;;;;;;;;;5.50;99.90;;;;;;5050488;28;20357;-62
2022/12/07 01:08:31;;;;;;;;;;;5.50;99.90;;;;;;5049059;28;20297;-63
2022/12/07 01:11:00;;;;;;;;;;;5.60;99.90;;;;;;5046365;28;19917;-62
2022/12/07 01:13:26;;;;;;;;;;;5.60;99.90;;;;;;5048106;28;19912;-62
2022/12/07 01:15:51;;;;;;;;;;;5.60;99.90;;;;;;5044527;28;19913;-62
2022/12/07 01:18:16;;;;;;;;;;;5.60;99.90;;;;;;5049648;28;19967;-63
2022/12/07 01:20:42;;;;;;;;;;;5.60;99.90;;;;;;5046646;28;19923;-62
2022/12/07 01:23:07;;;;;;;;;;;5.60;99.90;;;;;;5050742;28;19920;-63
2022/12/07 01:25:33;;;;;;;;;;;5.60;99.90;;;;;;5044661;28;19966;-65
2022/12/07 01:27:58;;;;;;;;;;;5.60;99.90;;;;;;5049224;28;19913;-63
2022/12/07 01:30:24;;;;;;;;;;;5.60;99.90;;;;;;5046527;28;19991;-62
2022/12/07 01:32:49;;;;;;;;;;;5.60;99.90;;;;;;5048949;28;19913;-63
2022/12/07 01:35:15;;;;;;;;;;;5.70;99.90;;;;;;5047252;28;19979;-63
2022/12/07 01:37:40;;;;;;;;;;;5.70;99.90;;;;;;5047488;28;19920;-63
2022/12/07 01:40:06;;;;;;;;;;;5.70;99.90;;;;;;5046122;28;20348;-63
2022/12/07 01:42:32;;;;;;;;;;;5.70;99.90;;;;;;5047300;28;20003;-63
2022/12/07 01:45:16;;;;;;;;;;;5.70;99.90;;;;;;5050233;28;20050;-62
2022/12/07 01:47:43;;;;;;;;;;;5.70;99.90;;;;;;5047433;28;19944;-62
2022/12/07 01:50:09;;;;;;;;;;;5.70;99.90;;;;;;5048202;28;19924;-63
2022/12/07 01:52:36;;;;;;;;;;;5.70;99.90;;;;;;5047656;28;19912;-63
2022/12/07 01:55:03;;;;;;;;;;;5.70;99.90;;;;;;5047874;28;20352;-63
2022/12/07 01:57:30;;;;;;;;;;;5.70;99.90;;;;;;5042754;28;19925;-62
2022/12/07 01:59:56;;;;;;;;;;;5.60;99.90;;;;;;5047297;28;19920;-63
2022/12/07 02:02:24;;;;;;;;;;;5.60;99.90;;;;;;5048914;28;19927;-63
2022/12/07 02:04:51;;;;;;;;;;;5.70;99.90;;;;;;5044460;28;19917;-62
2022/12/07 02:07:16;;;;;;;;;;;5.60;99.90;;;;;;5047347;28;19912;-62
2022/12/07 02:09:42;;;;;;;;;;;5.60;99.90;;;;;;5045861;28;19964;-62
2022/12/07 02:12:07;;;;;;;;;;;5.60;99.90;;;;;;5049041;28;19916;-63
2022/12/07 02:14:33;;;;;;;;;;;5.60;99.90;;;;;;5049776;28;19919;-63
2022/12/07 02:17:14;;;;;;;;;;;5.70;99.90;;;;;;5046018;28;19917;-63
2022/12/07 02:19:45;;;;;;;;;;;5.60;99.90;;;;;;5046429;28;19913;-62
2022/12/07 02:22:22;;;;;;;;;;;5.70;99.90;;;;;;5044394;28;20002;-62
2022/12/07 02:24:48;;;;;;;;;;;5.60;99.90;;;;;;5050043;28;19920;-60
2022/12/07 02:27:26;;;;;;;;;;;5.60;99.90;;;;;;5047352;28;19920;-62
2022/12/07 02:29:57;;;;;;;;;;;5.60;99.90;;;;;;5049225;28;20387;-63
2022/12/07 02:32:24;;;;;;;;;;;5.70;99.90;;;;;;5051434;28;20284;-60
2022/12/07 02:34:52;;;;;;;;;;;5.60;99.90;;;;;;5051599;28;19917;-62
2022/12/07 02:37:36;;;;;;;;;;;5.60;99.90;;;;;;5052418;28;20306;-63
2022/12/07 02:40:11;;;;;;;;;;;5.60;99.90;;;;;;5045766;28;19924;-62
2022/12/07 02:42:40;;;;;;;;;;;5.60;99.90;;;;;;5049206;28;20316;-62
2022/12/07 02:45:06;;;;;;;;;;;5.60;99.90;;;;;;5049799;28;20462;-62
2022/12/07 02:47:33;;;;;;;;;;;5.60;99.90;;;;;;5050786;28;19920;-62
2022/12/07 02:49:58;;;;;;;;;;;5.60;99.90;;;;;;5051325;28;19923;-61
2022/12/07 02:52:24;;;;;;;;;;;5.60;99.90;;;;;;5049801;28;19913;-59
2022/12/07 02:54:49;;;;;;;;;;;5.60;99.90;;;;;;5052112;28;19917;-62
2022/12/07 02:57:21;;;;;;;;;;;5.60;99.90;;;;;;5075668;22;19933;-62
2022/12/07 03:00:00;;;;;;;;;;;5.60;99.90;;;;;;5051222;28;19923;-60
2022/12/07 03:02:28;;;;;;;;;;;5.50;99.90;;;;;;5049613;28;19935;-62
2022/12/07 03:04:59;;;;;;;;;;;5.50;99.90;;;;;;5049677;28;19929;-62
2022/12/07 03:07:43;;;;;;;;;;;5.60;99.90;;;;;;5058319;28;20287;-62
2022/12/07 03:10:09;;;;;;;;;;;5.60;99.90;;;;;;5050697;28;19920;-61
2022/12/07 03:12:47;;;;;;;;;;;5.60;99.90;;;;;;5049411;28;20413;-62
2022/12/07 03:15:23;;;;;;;;;;;5.60;99.90;;;;;;5052760;28;19916;-62
2022/12/07 03:17:49;;;;;;;;;;;5.60;99.90;;;;;;5057387;28;19913;-62
2022/12/07 03:20:17;;;;;;;;;;;5.60;99.90;;;;;;5058670;28;19912;-61
2022/12/07 03:22:43;;;;;;;;;;;5.60;99.90;;;;;;5053882;28;19999;-61
2022/12/07 03:25:11;;;;;;;;;;;5.70;99.90;;;;;;5055413;28;19912;-62
2022/12/07 03:27:40;;;;;;;;;;;5.70;99.90;;;;;;5061562;28;19912;-61
2022/12/07 03:30:12;;;;;;;;;;;5.70;99.90;;;;;;5054197;28;19924;-60
2022/12/07 03:32:45;;;;;;;;;;;5.60;99.90;;;;;;5049954;28;19924;-63
2022/12/07 03:35:11;;;;;;;;;;;5.60;99.90;;;;;;5050813;28;19917;-62
2022/12/07 03:37:45;;;;;;;;;;;5.70;99.90;;;;;;5054077;28;19995;-62
2022/12/07 03:40:22;;;;;;;;;;;5.60;99.90;;;;;;5056302;28;19923;-62
2022/12/07 03:42:48;;;;;;;;;;;5.60;99.90;;;;;;5054891;28;19921;-62
2022/12/07 03:45:15;;;;;;;;;;;5.60;99.90;;;;;;5057449;28;20302;-61
2022/12/07 03:47:47;;;;;;;;;;;5.60;99.90;;;;;;5053693;28;21373;-60
2022/12/07 03:50:29;;;;;;;;;;;5.60;99.90;;;;;;5053311;28;19923;-61
2022/12/07 03:53:04;;;;;;;;;;;5.60;99.90;;;;;;5047227;28;19913;-62
2022/12/07 03:55:31;;;;;;;;;;;5.60;99.90;;;;;;5058840;28;20402;-62
2022/12/07 03:57:59;;;;;;;;;;;5.60;99.90;;;;;;5050973;28;19917;-62
2022/12/07 04:00:25;;;;;;;;;;;5.60;99.90;;;;;;5053575;28;19921;-60
2022/12/07 04:02:51;;;;;;;;;;;5.60;99.90;;;;;;5051685;28;19988;-61
2022/12/07 04:05:17;;;;;;;;;;;5.50;99.90;;;;;;5053766;28;19913;-61
2022/12/07 04:07:42;;;;;;;;;;;5.50;99.90;;;;;;5054208;28;19912;-59
2022/12/07 04:10:08;;;;;;;;;;;5.50;99.90;;;;;;5050378;28;20363;-59
2022/12/07 04:12:33;;;;;;;;;;;5.60;99.90;;;;;;5050395;28;19920;-61
2022/12/07 04:14:59;;;;;;;;;;;5.50;99.90;;;;;;5050525;28;19920;-59
2022/12/07 04:17:24;;;;;;;;;;;5.50;99.90;;;;;;5054259;28;19954;-60
2022/12/07 04:19:50;;;;;;;;;;;5.50;99.90;;;;;;5049721;28;20302;-61
2022/12/07 04:22:15;;;;;;;;;;;5.50;99.90;;;;;;5055838;28;19944;-59
2022/12/07 04:24:41;;;;;;;;;;;5.50;99.90;;;;;;5054598;28;19913;-62
2022/12/07 04:27:06;;;;;;;;;;;5.50;99.90;;;;;;5057358;28;19913;-62
2022/12/07 04:29:32;;;;;;;;;;;5.50;99.90;;;;;;5047605;28;20653;-62
2022/12/07 04:31:57;;;;;;;;;;;5.50;99.90;;;;;;5044442;28;20018;-63
2022/12/07 04:34:23;;;;;;;;;;;5.60;99.90;;;;;;5052190;28;19912;-61
2022/12/07 04:36:48;;;;;;;;;;;5.50;99.90;;;;;;5051122;28;20007;-62
2022/12/07 04:39:30;;;;;;;;;;;5.50;99.90;;;;;;5056713;28;19913;-62
2022/12/07 04:41:56;;;;;;;;;;;5.50;99.90;;;;;;5050289;28;20275;-62
2022/12/07 04:44:22;;;;;;;;;;;5.50;99.90;;;;;;5051078;28;19920;-59
2022/12/07 04:46:48;;;;;;;;;;;5.40;99.90;;;;;;5049942;28;19920;-62
2022/12/07 04:49:13;;;;;;;;;;;5.40;99.90;;;;;;5050501;28;19923;-62
2022/12/07 04:51:39;;;;;;;;;;;5.40;99.90;;;;;;5056721;28;19917;-62
2022/12/07 04:54:05;;;;;;;;;;;5.40;99.90;;;;;;5049600;28;19935;-62
2022/12/07 04:56:30;;;;;;;;;;;5.30;99.90;;;;;;5047858;28;19998;-62
2022/12/07 04:58:56;;;;;;;;;;;5.30;99.90;;;;;;5053065;28;20024;-61
2022/12/07 05:01:22;;;;;;;;;;;5.30;99.90;;;;;;5045915;28;19921;-62
2022/12/07 05:03:47;;;;;;;;;;;5.30;99.90;;;;;;5048294;28;20340;-59
2022/12/07 05:06:13;;;;;;;;;;;5.30;99.90;;;;;;5049751;28;19913;-63
2022/12/07 05:08:39;;;;;;;;;;;5.30;99.90;;;;;;5049485;28;19959;-62
2022/12/07 05:11:05;;;;;;;;;;;5.30;99.90;;;;;;5054552;28;20301;-60
2022/12/07 05:13:31;;;;;;;;;;;5.30;99.90;;;;;;5052210;28;19924;-62
2022/12/07 05:15:56;;;;;;;;;;;5.40;99.90;;;;;;5056796;28;19921;-62
2022/12/07 05:18:22;;;;;;;;;;;5.40;99.90;;;;;;5047804;28;20003;-62
2022/12/07 05:20:48;;;;;;;;;;;5.40;99.90;;;;;;5051105;28;19975;-61
2022/12/07 05:23:13;;;;;;;;;;;5.30;99.90;;;;;;5049587;28;19968;-61
2022/12/07 05:25:38;;;;;;;;;;;5.30;99.90;;;;;;5044571;28;19916;-62
2022/12/07 05:28:04;;;;;;;;;;;5.30;99.90;;;;;;5048374;28;19913;-61
2022/12/07 05:30:30;;;;;;;;;;;5.30;99.90;;;;;;5048399;28;19935;-61
2022/12/07 05:32:55;;;;;;;;;;;5.30;99.90;;;;;;5047462;28;20034;-60
2022/12/07 05:35:21;;;;;;;;;;;5.30;99.90;;;;;;5047368;28;20340;-59
2022/12/07 05:37:46;;;;;;;;;;;5.30;99.90;;;;;;5048219;28;19913;-61
2022/12/07 05:40:12;;;;;;;;;;;5.30;99.90;;;;;;5048608;28;19913;-63
2022/12/07 05:42:38;;;;;;;;;;;5.30;99.90;;;;;;5050763;28;20003;-60
2022/12/07 05:45:04;;;;;;;;;;;5.40;99.90;;;;;;5058532;28;19956;-61
2022/12/07 05:47:29;;;;;;;;;;;5.40;99.90;;;;;;5051425;28;20481;-61
2022/12/07 05:49:55;;;;;;;;;;;5.40;99.90;;;;;;5047216;28;19924;-62
2022/12/07 05:52:20;;;;;;;;;;;5.40;99.90;;;;;;5053288;28;20406;-59
2022/12/07 05:54:46;;;;;;;;;;;5.40;99.90;;;;;;5051323;28;19936;-59
2022/12/07 05:57:11;;;;;;;;;;;5.40;99.90;;;;;;5054340;28;20011;-61
2022/12/07 05:59:37;;;;;;;;;;;5.40;99.90;;;;;;5044868;28;19913;-59
2022/12/07 06:02:04;;;;;;;;;;;5.40;99.90;;;;;;5049569;28;19912;-59
2022/12/07 06:04:30;;;;;;;;;;;5.40;99.90;;;;;;5055210;28;19913;-61
2022/12/07 06:06:56;;;;;;;;;;;5.30;99.90;;;;;;5048305;28;20259;-62
2022/12/07 06:09:24;;;;;;;;;;;5.30;99.90;;;;;;5050332;28;19923;-62
2022/12/07 06:14:34;;;;;;;;;;;5.20;99.90;;;;;;5043004;28;19994;-62
2022/12/07 06:17:00;;;;;;;;;;;5.20;99.90;;;;;;5040657;28;19996;-60
2022/12/07 06:19:25;;;;;;;;;;;5.20;99.90;;;;;;5050440;28;19913;-61
2022/12/07 06:21:51;;;;;;;;;;;5.20;99.90;;;;;;5050406;28;20358;-62
2022/12/07 06:24:17;;;;;;;;;;;5.10;99.90;;;;;;5054084;28;20371;-61
2022/12/07 06:26:43;;;;;;;;;;;5.00;99.90;;;;;;5048675;28;19914;-61
2022/12/07 06:29:09;;;;;;;;;;;5.00;99.90;;;;;;5046191;28;19917;-62
2022/12/07 06:31:34;;;;;;;;;;;5.00;99.90;;;;;;5055680;28;19919;-62
2022/12/07 06:34:01;;;;;;;;;;;5.00;99.90;;;;;;5049465;28;19917;-59
2022/12/07 06:36:27;;;;;;;;;;;5.00;99.90;;;;;;5049638;28;20008;-61
2022/12/07 06:38:52;;;;;;;;;;;5.00;99.90;;;;;;5055717;28;19920;-60
2022/12/07 06:41:18;;;;;;;;;;;5.00;99.90;;;;;;5054748;28;19913;-61
2022/12/07 06:43:43;;;;;;;;;;;5.00;99.90;;;;;;5058208;28;20328;-60
2022/12/07 06:46:09;;;;;;;;;;;5.00;99.90;;;;;;5052579;28;19928;-61
2022/12/07 06:48:34;;;;;;;;;;;5.00;99.90;;;;;;5051243;28;20342;-62
2022/12/07 06:50:59;;;;;;;;;;;5.00;99.90;;;;;;5054156;28;19946;-62
2022/12/07 06:53:25;;;;;;;;;;;5.00;99.90;;;;;;5047675;28;19913;-62
2022/12/07 06:55:51;;;;;;;;;;;4.90;99.90;;;;;;5047233;28;20267;-61
2022/12/07 06:58:16;;;;;;;;;;;4.90;99.90;;;;;;5050529;28;19939;-60
2022/12/07 07:00:42;;;;;;;;;;;5.00;99.90;;;;;;5059993;28;19913;-60
2022/12/07 07:03:08;;;;;;;;;;;5.00;99.90;;;;;;5048693;28;21181;-61
2022/12/07 07:05:33;;;;;;;;;;;5.10;99.90;;;;;;5052508;28;19913;-60
2022/12/07 07:07:59;;;;;;;;;;;5.00;99.90;;;;;;5050908;28;19916;-62
2022/12/07 07:10:24;;;;;;;;;;;5.10;99.90;;;;;;5052343;28;19921;-60
2022/12/07 07:12:49;;;;;;;;;;;5.10;99.90;;;;;;5064690;28;19974;-61
2022/12/07 07:15:15;;;;;;;;;;;5.10;99.90;;;;;;5054188;28;19919;-60
2022/12/07 07:17:40;;;;;;;;;;;5.10;99.90;;;;;;5056139;28;20294;-60
2022/12/07 07:20:06;;;;;;;;;;;5.10;99.90;;;;;;5053409;28;20391;-61
2022/12/07 07:22:31;;;;;;;;;;;5.10;99.90;;;;;;5053304;28;19913;-61
2022/12/07 07:24:57;;;;;;;;;;;5.10;99.90;;;;;;5046348;28;20026;-62
2022/12/07 07:27:22;;;;;;;;;;;5.10;99.90;;;;;;5053226;28;19908;-61
2022/12/07 07:29:48;;;;;;;;;;;5.10;99.90;;;;;;5051385;28;19916;-61
2022/12/07 07:32:13;;;;;;;;;;;5.20;99.90;;;;;;5059685;28;19919;-62
2022/12/07 07:34:39;;;;;;;;;;;5.20;99.90;;;;;;5056596;28;19909;-61
2022/12/07 07:37:05;;;;;;;;;;;5.10;99.90;;;;;;5053850;28;19920;-59
2022/12/07 07:39:30;;;;;;;;;;;5.10;99.90;;;;;;5058614;28;20426;-62
2022/12/07 07:41:56;;;;;;;;;;;5.10;99.90;;;;;;5053161;28;20281;-62
2022/12/07 07:44:21;;;;;;;;;;;5.10;99.90;;;;;;5057531;28;20353;-59
2022/12/07 07:46:47;;;;;;;;;;;5.10;99.90;;;;;;5063045;28;20041;-62
2022/12/07 07:49:12;;;;;;;;;;;5.00;99.90;;;;;;5047114;28;20325;-62
2022/12/07 07:51:38;;;;;;;;;;;5.00;99.90;;;;;;5063841;28;20606;-62
2022/12/07 07:54:03;;;;;;;;;;;5.00;99.90;;;;;;5062416;28;19915;-60
2022/12/07 07:56:29;;;;;;;;;;;5.00;99.90;;;;;;5060485;28;20051;-60
2022/12/07 07:58:54;;;;;;;;;;;5.00;99.90;;;;;;5058943;28;20477;-60
2022/12/07 08:01:20;;;;;;;;;;;5.10;99.90;;;;;;5053500;28;19921;-61
2022/12/07 08:03:46;;;;;;;;;;;5.10;99.90;;;;;;5048748;28;19917;-61
2022/12/07 08:06:11;;;;;;;;;;;5.10;99.90;;;;;;5054875;28;19909;-61
2022/12/07 08:08:37;;;;;;;;;;;5.10;99.90;;;;;;5056071;28;19927;-60
2022/12/07 08:11:06;;;;;;;;;;;5.10;99.90;;;;;;5061622;28;19924;-62
2022/12/07 08:13:31;;;;;;;;;;;5.10;99.90;;;;;;5051989;28;20353;-61
2022/12/07 08:15:57;;;;;;;;;;;5.20;99.90;;;;;;5057425;28;19921;-60
2022/12/07 08:18:22;;;;;;;;;;;5.20;99.90;;;;;;5063074;28;20290;-62
2022/12/07 08:20:48;;;;;;;;;;;5.20;99.90;;;;;;5055631;28;20002;-58
2022/12/07 08:23:13;;;;;;;;;;;5.20;99.90;;;;;;5056284;28;19913;-62
2022/12/07 08:25:39;;;;;;;;;;;5.30;99.90;;;;;;5062476;28;19997;-61
2022/12/07 08:28:05;;;;;;;;;;;5.20;99.90;;;;;;5052006;28;19940;-61
2022/12/07 08:30:31;;;;;;;;;;;5.30;99.90;;;;;;5062352;28;20022;-60
2022/12/07 08:32:56;;;;;;;;;;;5.30;99.90;;;;;;5047681;28;19916;-60
2022/12/07 08:35:22;;;;;;;;;;;5.30;99.90;;;;;;5049434;28;19913;-61
2022/12/07 08:37:47;;;;;;;;;;;5.30;99.90;;;;;;5043204;28;19971;-61
2022/12/07 08:40:15;;;;;;;;;;;5.40;99.90;;;;;;5048198;28;19917;-58
2022/12/07 08:42:41;;;;;;;;;;;5.40;99.90;;;;;;5062266;28;20000;-61
2022/12/07 08:45:08;;;;;;;;;;;5.40;99.90;;;;;;5052103;28;19967;-62
2022/12/07 08:47:36;;;;;;;;;;;5.40;99.90;;;;;;5052215;28;19920;-60
2022/12/07 08:50:03;;;;;;;;;;;5.40;99.90;;;;;;5054932;28;19970;-60
2022/12/07 08:52:29;;;;;;;;;;;5.40;99.90;;;;;;5053582;28;19916;-61
2022/12/07 08:54:55;;;;;;;;;;;5.50;99.90;;;;;;5064033;28;19967;-61
2022/12/07 08:57:21;;;;;;;;;;;5.50;99.90;;;;;;5061814;28;20405;-61
2022/12/07 08:59:46;;;;;;;;;;;5.50;99.90;;;;;;5058506;28;20003;-62
2022/12/07 09:02:11;;;;;;;;;;;5.50;99.90;;;;;;5053853;28;19939;-61
2022/12/07 09:04:37;;;;;;;;;;;5.50;99.90;;;;;;5047273;28;19920;-62
2022/12/07 09:07:03;;;;;;;;;;;5.60;99.90;;;;;;5050964;28;20329;-60
2022/12/07 09:09:29;;;;;;;;;;;5.50;99.90;;;;;;5047087;28;19916;-60
2022/12/07 09:11:54;;;;;;;;;;;5.50;99.90;;;;;;5054358;28;19958;-60
2022/12/07 09:14:20;;;;;;;;;;;5.60;99.90;;;;;;5055419;28;19916;-60
2022/12/07 09:16:45;;;;;;;;;;;5.60;99.90;;;;;;5049372;28;19940;-59
2022/12/07 09:19:11;;;;;;;;;;;5.70;99.90;;;;;;5043802;28;19912;-59
2022/12/07 09:21:36;;;;;;;;;;;5.70;99.90;;;;;;5049215;28;19928;-61
2022/12/07 09:24:02;;;;;;;;;;;5.80;99.90;;;;;;5050718;28;19916;-61
2022/12/07 09:26:27;;;;;;;;;;;5.90;99.90;;;;;;5048493;28;20395;-60
2022/12/07 09:28:53;;;;;;;;;;;5.90;99.90;;;;;;5047498;28;20453;-60
2022/12/07 09:31:18;;;;;;;;;;;6.00;99.90;;;;;;5055585;28;20022;-60
2022/12/07 09:33:44;;;;;;;;;;;6.00;99.90;;;;;;5058939;28;19935;-59
2022/12/07 09:36:10;;;;;;;;;;;6.00;99.90;;;;;;5052438;28;19936;-60
2022/12/07 09:38:35;;;;;;;;;;;6.00;99.90;;;;;;5056492;28;20287;-60
2022/12/07 09:41:07;;;;;;;;;;;6.00;99.90;;;;;;5058607;28;19920;-60
2022/12/07 09:43:34;;;;;;;;;;;5.90;99.90;;;;;;5052557;28;19934;-59
2022/12/07 09:45:59;;;;;;;;;;;5.90;99.90;;;;;;5051908;28;20359;-61
2022/12/07 09:48:25;;;;;;;;;;;6.00;99.90;;;;;;5047800;28;19913;-61
2022/12/07 09:50:51;;;;;;;;;;;6.00;99.90;;;;;;5081208;22;19993;-56
2022/12/07 09:53:43;;;;;;;;;;;6.00;99.90;;;;;;5070047;28;19908;-58
2022/12/07 09:56:11;;;;;;;;;;;6.00;99.90;;;;;;5065767;28;19913;-57
2022/12/07 09:58:37;;;;;;;;;;;6.00;99.90;;;;;;5070096;28;20290;-57
2022/12/07 10:01:12;;;;;;;;;;;6.00;99.90;;;;;;5067291;28;19912;-56
2022/12/07 10:03:38;;;;;;;;;;;6.00;99.90;;;;;;5066141;28;19920;-57
2022/12/07 10:06:05;;;;;;;;;;;6.10;99.90;;;;;;5065120;28;19913;-60
2022/12/07 10:08:30;;;;;;;;;;;6.10;99.90;;;;;;5064777;28;19938;-58
2022/12/07 10:10:56;;;;;;;;;;;6.10;99.90;;;;;;5067925;28;19924;-59
2022/12/07 10:13:33;;;;;;;;;;;6.20;99.90;;;;;;5066235;28;19935;-56
2022/12/07 10:15:58;;;;;;;;;;;6.20;99.90;;;;;;5060829;28;19913;-58
2022/12/07 10:18:28;;;;;;;;;;;6.20;99.90;;;;;;5063225;28;19915;-58
2022/12/07 10:21:02;;;;;;;;;;;6.30;99.90;;;;;;5068426;28;19908;-57
2022/12/07 10:23:28;;;;;;;;;;;6.30;99.90;;;;;;5070032;28;19912;-60
2022/12/07 10:25:54;;;;;;;;;;;6.30;99.90;;;;;;5070083;28;20019;-59
2022/12/07 10:28:20;;;;;;;;;;;6.30;99.90;;;;;;5068709;28;19908;-58
2022/12/07 10:30:46;;;;;;;;;;;6.30;99.90;;;;;;5067806;28;20102;-58
2022/12/07 10:33:28;;;;;;;;;;;6.40;99.90;;;;;;5069466;28;19932;-58
2022/12/07 10:35:53;;;;;;;;;;;6.40;99.90;;;;;;5070318;28;19912;-58
2022/12/07 10:38:19;;;;;;;;;;;6.40;99.90;;;;;;5070500;28;19909;-56
2022/12/07 10:40:44;;;;;;;;;;;6.40;99.90;;;;;;5069721;28;19915;-54
2022/12/07 10:43:16;;;;;;;;;;;6.40;99.90;;;;;;5065803;28;19967;-56
2022/12/07 10:45:48;;;;;;;;;;;6.40;99.90;;;;;;5072615;28;20000;-55
2022/12/07 10:48:43;;;;;;;;;;;6.40;99.90;;;;;;5073938;28;19909;-57
2022/12/07 10:51:17;;;;;;;;;;;6.40;99.90;;;;;;5057054;28;20386;-55
2022/12/07 10:54:10;;;;;;;;;;;6.40;99.90;;;;;;5070946;28;19920;-56
2022/12/07 10:56:47;;;;;;;;;;;6.50;99.90;;;;;;5065318;28;19927;-57
2022/12/07 10:59:26;;;;;;;;;;;6.60;99.90;;;;;;5066657;28;19948;-58
2022/12/07 11:01:51;;;;;;;;;;;6.70;99.90;;;;;;5070630;28;20358;-59
2022/12/07 11:04:17;;;;;;;;;;;6.60;99.90;;;;;;5072181;28;19970;-56
2022/12/07 11:06:51;;;;;;;;;;;6.70;99.90;;;;;;5071298;28;19966;-56
2022/12/07 11:09:45;;;;;;;;;;;6.60;99.90;;;;;;5070164;28;20003;-60
2022/12/07 11:12:26;;;;;;;;;;;6.70;99.90;;;;;;5065696;28;20853;-59
2022/12/07 11:14:56;;;;;;;;;;;6.60;99.90;;;;;;5066563;28;20440;-58
2022/12/07 11:17:31;;;;;;;;;;;6.70;99.90;;;;;;5073124;28;19912;-59
2022/12/07 11:20:16;;;;;;;;;;;6.70;99.90;;;;;;5072706;28;19917;-56
2022/12/07 11:23:05;;;;;;;;;;;6.80;99.90;;;;;;5072926;28;19917;-58
2022/12/07 11:25:30;;;;;;;;;;;6.70;99.90;;;;;;5060935;28;19912;-55
2022/12/07 11:28:11;;;;;;;;;;;6.80;99.90;;;;;;5068809;28;20305;-57
2022/12/07 11:30:47;;;;;;;;;;;6.80;99.90;;;;;;5072624;28;20345;-55
2022/12/07 11:33:17;;;;;;;;;;;6.80;99.90;;;;;;5066266;28;20358;-55
2022/12/07 11:36:01;;;;;;;;;;;6.80;99.90;;;;;;5072390;28;20011;-59
2022/12/07 11:38:34;;;;;;;;;;;6.90;99.90;;;;;;5071329;28;20423;-58
2022/12/07 11:41:12;;;;;;;;;;;6.80;99.90;;;;;;5072602;28;19912;-57
2022/12/07 11:43:41;;;;;;;;;;;6.80;99.90;;;;;;5072210;28;20003;-58
2022/12/07 11:46:12;;;;;;;;;;;6.70;99.90;;;;;;5072011;28;19955;-57
2022/12/07 11:48:40;;;;;;;;;;;6.70;99.90;;;;;;5071655;28;19916;-57
2022/12/07 11:51:07;;;;;;;;;;;6.80;99.90;;;;;;5072244;28;19920;-57
2022/12/07 11:53:33;;;;;;;;;;;6.80;99.90;;;;;;5069404;28;19959;-58
2022/12/07 11:56:05;;;;;;;;;;;6.70;99.90;;;;;;5068430;28;19951;-55
2022/12/07 11:58:33;;;;;;;;;;;6.70;99.90;;;;;;5070225;28;19912;-56
2022/12/07 12:01:19;;;;;;;;;;;6.70;99.90;;;;;;5071614;28;20593;-54
2022/12/07 12:03:49;;;;;;;;;;;6.70;99.90;;;;;;5070789;28;19965;-55
2022/12/07 12:06:14;;;;;;;;;;;6.70;99.90;;;;;;5070872;28;19965;-56
2022/12/07 12:08:45;;;;;;;;;;;6.60;99.90;;;;;;5069899;28;19917;-57
2022/12/07 12:11:29;;;;;;;;;;;6.60;99.90;;;;;;5071499;28;19912;-55
2022/12/07 12:14:13;;;;;;;;;;;6.60;99.90;;;;;;5070343;28;20774;-55
2022/12/07 12:16:55;;;;;;;;;;;6.60;99.90;;;;;;5069775;28;20421;-54
2022/12/07 12:19:23;;;;;;;;;;;6.60;99.90;;;;;;5064817;28;19912;-56
2022/12/07 12:21:53;;;;;;;;;;;6.60;99.90;;;;;;5070775;28;19917;-56
2022/12/07 12:24:22;;;;;;;;;;;6.60;99.90;;;;;;5066349;28;20370;-54
2022/12/07 12:26:52;;;;;;;;;;;6.70;99.90;;;;;;5069394;28;19916;-52
2022/12/07 12:29:30;;;;;;;;;;;6.70;99.90;;;;;;5063633;28;20074;-55
2022/12/07 12:32:05;;;;;;;;;;;6.60;99.90;;;;;;5060340;28;19913;-54
2022/12/07 12:34:40;;;;;;;;;;;6.70;99.90;;;;;;5060520;28;19920;-53
2022/12/07 12:37:24;;;;;;;;;;;6.70;99.90;;;;;;5063406;28;19996;-54
2022/12/07 12:40:08;;;;;;;;;;;6.70;99.90;;;;;;5062272;28;19920;-54
2022/12/07 12:42:49;;;;;;;;;;;6.70;99.90;;;;;;5061356;28;19966;-54
2022/12/07 12:45:17;;;;;;;;;;;6.70;99.90;;;;;;5061905;28;20374;-59
2022/12/07 12:47:52;;;;;;;;;;;6.70;99.90;;;;;;5065205;28;19955;-58
2022/12/07 12:50:18;;;;;;;;;;;6.60;99.90;;;;;;5061572;28;19925;-59
2022/12/07 12:52:44;;;;;;;;;;;6.60;99.90;;;;;;5064983;28;19913;-55
2022/12/07 12:55:09;;;;;;;;;;;6.60;99.90;;;;;;5061038;28;19955;-55
2022/12/07 12:57:35;;;;;;;;;;;6.60;99.90;;;;;;5066564;28;19956;-59
2022/12/07 13:00:14;;;;;;;;;;;6.60;99.90;;;;;;5057656;28;19956;-58
2022/12/07 13:02:56;;;;;;;;;;;6.50;99.90;;;;;;5064531;28;20286;-58
2022/12/07 13:05:27;;;;;;;;;;;6.50;99.90;;;;;;5063180;28;19913;-59
2022/12/07 13:07:54;;;;;;;;;;;6.50;99.90;;;;;;5067209;28;19974;-58
2022/12/07 13:10:22;;;;;;;;;;;6.50;99.90;;;;;;5065232;28;19927;-60
2022/12/07 13:13:06;;;;;;;;;;;6.50;99.90;;;;;;5063945;28;21012;-57
2022/12/07 13:15:34;;;;;;;;;;;6.50;99.90;;;;;;5064013;28;19916;-57
2022/12/07 13:18:00;;;;;;;;;;;6.50;99.90;;;;;;5057244;28;20318;-58
2022/12/07 13:20:46;;;;;;;;;;;6.40;99.90;;;;;;5061894;28;20015;-59
2022/12/07 13:23:13;;;;;;;;;;;6.40;99.90;;;;;;5064177;28;19912;-56
2022/12/07 13:25:56;;;;;;;;;;;6.50;99.90;;;;;;5063375;28;19921;-58
2022/12/07 13:28:26;;;;;;;;;;;6.50;99.90;;;;;;5063034;28;19919;-57
2022/12/07 13:30:58;;;;;;;;;;;6.50;99.90;;;;;;5063969;28;20009;-58
2022/12/07 13:33:27;;;;;;;;;;;6.50;99.90;;;;;;5063171;28;19913;-57
2022/12/07 13:35:56;;;;;;;;;;;6.50;99.90;;;;;;5066307;28;19916;-56
2022/12/07 13:38:36;;;;;;;;;;;6.50;99.90;;;;;;5065593;28;19916;-58
2022/12/07 13:41:05;;;;;;;;;;;6.50;99.90;;;;;;5067739;28;19923;-57
2022/12/07 13:43:30;;;;;;;;;;;6.60;99.90;;;;;;5065593;28;19999;-57
2022/12/07 13:45:57;;;;;;;;;;;6.60;99.90;;;;;;5063704;28;20459;-57
2022/12/07 13:48:34;;;;;;;;;;;6.60;99.90;;;;;;5067134;28;19913;-58
2022/12/07 13:51:01;;;;;;;;;;;6.60;99.90;;;;;;5065718;28;20337;-59
2022/12/07 13:53:30;;;;;;;;;;;6.60;99.90;;;;;;5065258;28;19916;-59
2022/12/07 13:55:57;;;;;;;;;;;6.70;99.90;;;;;;5063520;28;20009;-56
2022/12/07 13:58:22;;;;;;;;;;;6.70;99.90;;;;;;5062259;28;20057;-57
2022/12/07 14:00:48;;;;;;;;;;;6.60;99.90;;;;;;5068138;28;20391;-58
2022/12/07 14:03:13;;;;;;;;;;;6.60;99.90;;;;;;5066393;28;19913;-58
2022/12/07 14:05:40;;;;;;;;;;;6.60;99.90;;;;;;5068350;28;20018;-59
2022/12/07 14:08:11;;;;;;;;;;;6.60;99.90;;;;;;5064442;28;19919;-57
2022/12/07 14:10:39;;;;;;;;;;;6.60;99.90;;;;;;5062373;28;19916;-58
2022/12/07 14:13:19;;;;;;;;;;;6.50;99.90;;;;;;5063019;28;19943;-57
2022/12/07 14:15:49;;;;;;;;;;;6.50;99.90;;;;;;5061477;28;19912;-58
2022/12/07 14:18:26;;;;;;;;;;;6.50;99.90;;;;;;5066788;28;19936;-56
2022/12/07 14:21:02;;;;;;;;;;;6.50;99.90;;;;;;5058303;28;19912;-58
2022/12/07 14:23:27;;;;;;;;;;;6.50;99.90;;;;;;5070545;28;20974;-58
2022/12/07 14:25:53;;;;;;;;;;;6.50;99.90;;;;;;5065146;28;19923;-52
2022/12/07 14:28:33;;;;;;;;;;;6.40;99.90;;;;;;5070134;28;19920;-54
2022/12/07 14:30:59;;;;;;;;;;;6.40;99.90;;;;;;5063504;28;19916;-57
2022/12/07 14:33:26;;;;;;;;;;;6.40;99.90;;;;;;5062247;28;19917;-56
2022/12/07 14:35:55;;;;;;;;;;;6.40;99.90;;;;;;5065470;28;19919;-57
2022/12/07 14:38:21;;;;;;;;;;;6.40;99.90;;;;;;5070670;28;19909;-58
2022/12/07 14:40:47;;;;;;;;;;;6.40;99.90;;;;;;5062060;28;19917;-57